Decoded Metar for EPSY (SZYMANY in POLAND) (IATA:N/A) | Meteo·Mobile Aviation Weather
aviador You're here:

EPSY Decoded Metar

SZYMANY in POLAND
Report Time2019-03-23 08:30:00
UTC Time2019-03-23 08:44:27
Flight Rules vfr VFR
Wind190° at 09 kt
W.Decomp.*RWY 20: 8.8 kt HW 1.9 kt LCW
W.Rank190° ranks 10
Current wind is above 190° avg. (6.9)
Visibility9999 m
Phenomena:N/A
Clouds:N/A
Expected CloudBase > 4,400 ft AGL from Temp-Dew spread
CeilingNone
Temp09°C (ISA -5)
Dew Point-2°C (46% RH)
AAT3.5°C
QNH1027 hPa
Density Alt-541 ft
Elevation463 ft
Report Wrong Elevation
Raw Report
METAR EPSY 230830Z 19009KT 150V210 CAVOK 09/M02 Q1027=

Extra information for EPSY:More info

Airport Information Weather charts Add Link Nearby Venues Social comments